sensor_id;sensor_type;location;lat;lon;timestamp;P1;durP1;ratioP1;P2;durP2;ratioP2
77136;SDS011;66102;48.542;-2.970;2023-02-04T00:01:04;8.27;;;3.25;;
77136;SDS011;66102;48.542;-2.970;2023-02-04T00:03:30;6.70;;;3.08;;
77136;SDS011;66102;48.542;-2.970;2023-02-04T00:05:57;9.30;;;3.05;;
77136;SDS011;66102;48.542;-2.970;2023-02-04T00:08:23;8.15;;;2.80;;
77136;SDS011;66102;48.542;-2.970;2023-02-04T00:10:49;6.57;;;2.75;;
77136;SDS011;66102;48.542;-2.970;2023-02-04T00:13:15;6.72;;;2.83;;
77136;SDS011;66102;48.542;-2.970;2023-02-04T00:15:41;7.20;;;2.60;;
77136;SDS011;66102;48.542;-2.970;2023-02-04T00:18:07;6.78;;;3.05;;
77136;SDS011;66102;48.542;-2.970;2023-02-04T00:20:33;6.75;;;2.95;;
77136;SDS011;66102;48.542;-2.970;2023-02-04T00:22:59;7.78;;;2.92;;
77136;SDS011;66102;48.542;-2.970;2023-02-04T00:25:25;7.20;;;2.45;;
77136;SDS011;66102;48.542;-2.970;2023-02-04T00:27:52;7.22;;;2.55;;
77136;SDS011;66102;48.542;-2.970;2023-02-04T00:30:18;7.30;;;2.85;;
77136;SDS011;66102;48.542;-2.970;2023-02-04T00:32:44;7.10;;;2.70;;
77136;SDS011;66102;48.542;-2.970;2023-02-04T00:35:10;6.97;;;2.65;;
77136;SDS011;66102;48.542;-2.970;2023-02-04T00:37:36;7.00;;;2.30;;
77136;SDS011;66102;48.542;-2.970;2023-02-04T00:40:02;6.82;;;2.40;;
77136;SDS011;66102;48.542;-2.970;2023-02-04T00:42:28;13.00;;;3.90;;
77136;SDS011;66102;48.542;-2.970;2023-02-04T00:44:54;13.00;;;5.63;;
77136;SDS011;66102;48.542;-2.970;2023-02-04T00:47:20;10.90;;;5.05;;
77136;SDS011;66102;48.542;-2.970;2023-02-04T00:49:46;11.90;;;4.07;;
77136;SDS011;66102;48.542;-2.970;2023-02-04T00:52:12;9.38;;;3.22;;
77136;SDS011;66102;48.542;-2.970;2023-02-04T00:54:39;9.35;;;3.22;;
77136;SDS011;66102;48.542;-2.970;2023-02-04T00:57:05;9.15;;;2.88;;
77136;SDS011;66102;48.542;-2.970;2023-02-04T00:59:31;8.63;;;3.08;;
77136;SDS011;66102;48.542;-2.970;2023-02-04T01:01:57;8.70;;;3.35;;
77136;SDS011;66102;48.542;-2.970;2023-02-04T01:04:24;7.97;;;3.42;;
77136;SDS011;66102;48.542;-2.970;2023-02-04T01:06:52;9.45;;;3.42;;
77136;SDS011;66102;48.542;-2.970;2023-02-04T01:09:18;6.93;;;2.50;;
77136;SDS011;66102;48.542;-2.970;2023-02-04T01:11:44;6.85;;;2.60;;
77136;SDS011;66102;48.542;-2.970;2023-02-04T01:14:10;6.68;;;2.30;;
77136;SDS011;66102;48.542;-2.970;2023-02-04T01:16:36;7.82;;;3.30;;
77136;SDS011;66102;48.542;-2.970;2023-02-04T01:19:02;8.52;;;3.17;;
77136;SDS011;66102;48.542;-2.970;2023-02-04T01:21:28;8.15;;;2.88;;
77136;SDS011;66102;48.542;-2.970;2023-02-04T01:23:54;10.02;;;2.90;;
77136;SDS011;66102;48.542;-2.970;2023-02-04T01:26:20;6.70;;;2.67;;
77136;SDS011;66102;48.542;-2.970;2023-02-04T01:28:46;7.07;;;2.95;;
77136;SDS011;66102;48.542;-2.970;2023-02-04T01:31:13;9.32;;;2.97;;
77136;SDS011;66102;48.542;-2.970;2023-02-04T01:33:39;6.57;;;3.05;;
77136;SDS011;66102;48.542;-2.970;2023-02-04T01:36:05;8.18;;;2.63;;
77136;SDS011;66102;48.542;-2.970;2023-02-04T01:38:31;8.68;;;2.88;;
77136;SDS011;66102;48.542;-2.970;2023-02-04T01:40:57;8.18;;;3.15;;
77136;SDS011;66102;48.542;-2.970;2023-02-04T01:43:24;9.48;;;2.75;;
77136;SDS011;66102;48.542;-2.970;2023-02-04T01:45:50;6.20;;;2.92;;
77136;SDS011;66102;48.542;-2.970;2023-02-04T01:48:18;5.57;;;2.70;;
77136;SDS011;66102;48.542;-2.970;2023-02-04T01:50:49;10.65;;;3.63;;
77136;SDS011;66102;48.542;-2.970;2023-02-04T01:53:21;7.00;;;2.70;;
77136;SDS011;66102;48.542;-2.970;2023-02-04T01:55:48;6.88;;;2.75;;
77136;SDS011;66102;48.542;-2.970;2023-02-04T01:58:14;8.05;;;2.90;;
77136;SDS011;66102;48.542;-2.970;2023-02-04T02:00:41;6.75;;;3.03;;
77136;SDS011;66102;48.542;-2.970;2023-02-04T02:03:07;8.13;;;3.38;;
77136;SDS011;66102;48.542;-2.970;2023-02-04T02:05:36;8.50;;;2.50;;
77136;SDS011;66102;48.542;-2.970;2023-02-04T02:08:04;7.90;;;2.50;;
77136;SDS011;66102;48.542;-2.970;2023-02-04T02:10:30;10.10;;;3.03;;
77136;SDS011;66102;48.542;-2.970;2023-02-04T02:12:57;6.38;;;2.83;;
77136;SDS011;66102;48.542;-2.970;2023-02-04T02:15:23;6.93;;;2.78;;
77136;SDS011;66102;48.542;-2.970;2023-02-04T02:17:49;6.68;;;2.88;;
77136;SDS011;66102;48.542;-2.970;2023-02-04T02:20:17;6.53;;;2.58;;
77136;SDS011;66102;48.542;-2.970;2023-02-04T02:25:28;9.07;;;3.15;;
77136;SDS011;66102;48.542;-2.970;2023-02-04T02:27:55;8.43;;;2.83;;
77136;SDS011;66102;48.542;-2.970;2023-02-04T02:30:21;7.93;;;3.53;;
77136;SDS011;66102;48.542;-2.970;2023-02-04T02:32:48;7.90;;;3.13;;
77136;SDS011;66102;48.542;-2.970;2023-02-04T02:35:14;9.15;;;3.30;;
77136;SDS011;66102;48.542;-2.970;2023-02-04T02:37:40;7.40;;;2.72;;
77136;SDS011;66102;48.542;-2.970;2023-02-04T02:40:06;8.85;;;3.28;;
77136;SDS011;66102;48.542;-2.970;2023-02-04T02:42:33;6.43;;;2.83;;
77136;SDS011;66102;48.542;-2.970;2023-02-04T02:44:59;9.65;;;2.58;;
77136;SDS011;66102;48.542;-2.970;2023-02-04T02:47:28;5.93;;;2.95;;
77136;SDS011;66102;48.542;-2.970;2023-02-04T02:49:54;9.52;;;3.78;;
77136;SDS011;66102;48.542;-2.970;2023-02-04T02:52:20;7.57;;;3.05;;
77136;SDS011;66102;48.542;-2.970;2023-02-04T02:54:47;6.78;;;2.65;;
77136;SDS011;66102;48.542;-2.970;2023-02-04T02:57:18;6.47;;;2.80;;
77136;SDS011;66102;48.542;-2.970;2023-02-04T02:59:44;8.65;;;3.03;;
77136;SDS011;66102;48.542;-2.970;2023-02-04T03:02:12;8.38;;;2.72;;
77136;SDS011;66102;48.542;-2.970;2023-02-04T03:04:39;7.20;;;2.58;;
77136;SDS011;66102;48.542;-2.970;2023-02-04T03:07:06;6.53;;;3.00;;
77136;SDS011;66102;48.542;-2.970;2023-02-04T03:09:32;7.47;;;2.80;;
77136;SDS011;66102;48.542;-2.970;2023-02-04T03:11:58;7.38;;;2.50;;
77136;SDS011;66102;48.542;-2.970;2023-02-04T03:14:25;9.63;;;2.75;;
77136;SDS011;66102;48.542;-2.970;2023-02-04T03:16:52;7.28;;;3.08;;
77136;SDS011;66102;48.542;-2.970;2023-02-04T03:19:18;8.45;;;2.70;;
77136;SDS011;66102;48.542;-2.970;2023-02-04T03:21:45;6.28;;;2.53;;
77136;SDS011;66102;48.542;-2.970;2023-02-04T03:24:11;8.00;;;2.65;;
77136;SDS011;66102;48.542;-2.970;2023-02-04T03:26:37;8.38;;;2.58;;
77136;SDS011;66102;48.542;-2.970;2023-02-04T03:29:12;8.02;;;2.35;;
77136;SDS011;66102;48.542;-2.970;2023-02-04T03:31:38;7.68;;;2.60;;
77136;SDS011;66102;48.542;-2.970;2023-02-04T03:34:04;6.18;;;2.60;;
77136;SDS011;66102;48.542;-2.970;2023-02-04T03:36:30;5.20;;;2.10;;
77136;SDS011;66102;48.542;-2.970;2023-02-04T03:38:56;5.05;;;2.47;;
77136;SDS011;66102;48.542;-2.970;2023-02-04T03:41:22;7.85;;;2.60;;
77136;SDS011;66102;48.542;-2.970;2023-02-04T03:43:48;6.82;;;2.50;;
77136;SDS011;66102;48.542;-2.970;2023-02-04T03:46:14;8.95;;;2.72;;
77136;SDS011;66102;48.542;-2.970;2023-02-04T03:48:40;8.82;;;2.60;;
77136;SDS011;66102;48.542;-2.970;2023-02-04T03:51:06;6.28;;;2.33;;
77136;SDS011;66102;48.542;-2.970;2023-02-04T03:53:32;6.47;;;3.65;;
77136;SDS011;66102;48.542;-2.970;2023-02-04T03:55:58;9.30;;;3.35;;
77136;SDS011;66102;48.542;-2.970;2023-02-04T03:58:25;7.57;;;3.53;;
77136;SDS011;66102;48.542;-2.970;2023-02-04T04:00:51;10.88;;;3.45;;
77136;SDS011;66102;48.542;-2.970;2023-02-04T04:03:17;10.95;;;3.35;;
77136;SDS011;66102;48.542;-2.970;2023-02-04T04:05:43;8.80;;;3.25;;
77136;SDS011;66102;48.542;-2.970;2023-02-04T04:08:09;8.05;;;3.10;;
77136;SDS011;66102;48.542;-2.970;2023-02-04T04:10:35;11.55;;;3.10;;
77136;SDS011;66102;48.542;-2.970;2023-02-04T04:13:01;6.82;;;2.97;;
77136;SDS011;66102;48.542;-2.970;2023-02-04T04:15:27;9.40;;;3.28;;
77136;SDS011;66102;48.542;-2.970;2023-02-04T04:17:54;8.77;;;3.10;;
77136;SDS011;66102;48.542;-2.970;2023-02-04T04:20:20;10.80;;;3.95;;
77136;SDS011;66102;48.542;-2.970;2023-02-04T04:22:49;8.60;;;3.20;;
77136;SDS011;66102;48.542;-2.970;2023-02-04T04:25:15;7.00;;;2.78;;
77136;SDS011;66102;48.542;-2.970;2023-02-04T04:27:41;7.15;;;2.90;;
77136;SDS011;66102;48.542;-2.970;2023-02-04T04:30:07;7.32;;;3.38;;
77136;SDS011;66102;48.542;-2.970;2023-02-04T04:32:34;8.13;;;2.97;;
77136;SDS011;66102;48.542;-2.970;2023-02-04T04:35:00;8.23;;;2.90;;
77136;SDS011;66102;48.542;-2.970;2023-02-04T04:37:26;7.50;;;3.20;;
77136;SDS011;66102;48.542;-2.970;2023-02-04T04:39:52;9.20;;;3.00;;
77136;SDS011;66102;48.542;-2.970;2023-02-04T04:42:18;9.00;;;2.20;;
77136;SDS011;66102;48.542;-2.970;2023-02-04T04:44:44;7.00;;;2.45;;
77136;SDS011;66102;48.542;-2.970;2023-02-04T04:47:10;6.55;;;2.40;;
77136;SDS011;66102;48.542;-2.970;2023-02-04T04:49:36;6.45;;;2.30;;
77136;SDS011;66102;48.542;-2.970;2023-02-04T04:52:02;7.70;;;2.50;;
77136;SDS011;66102;48.542;-2.970;2023-02-04T04:54:28;6.68;;;2.05;;
77136;SDS011;66102;48.542;-2.970;2023-02-04T04:56:54;7.15;;;2.33;;
77136;SDS011;66102;48.542;-2.970;2023-02-04T04:59:20;5.50;;;2.40;;
77136;SDS011;66102;48.542;-2.970;2023-02-04T05:01:46;7.63;;;2.30;;
77136;SDS011;66102;48.542;-2.970;2023-02-04T05:04:12;6.63;;;2.70;;
77136;SDS011;66102;48.542;-2.970;2023-02-04T05:06:39;7.13;;;2.65;;
77136;SDS011;66102;48.542;-2.970;2023-02-04T05:09:05;7.53;;;3.20;;
77136;SDS011;66102;48.542;-2.970;2023-02-04T05:11:31;8.07;;;2.65;;
77136;SDS011;66102;48.542;-2.970;2023-02-04T05:13:57;7.57;;;3.03;;
77136;SDS011;66102;48.542;-2.970;2023-02-04T05:16:23;6.78;;;2.92;;
77136;SDS011;66102;48.542;-2.970;2023-02-04T05:18:49;12.10;;;3.00;;
77136;SDS011;66102;48.542;-2.970;2023-02-04T05:21:15;9.88;;;3.03;;
77136;SDS011;66102;48.542;-2.970;2023-02-04T05:23:41;8.60;;;3.20;;
77136;SDS011;66102;48.542;-2.970;2023-02-04T05:26:07;7.43;;;3.38;;
77136;SDS011;66102;48.542;-2.970;2023-02-04T05:28:33;10.65;;;3.47;;
77136;SDS011;66102;48.542;-2.970;2023-02-04T05:30:59;7.78;;;3.45;;
77136;SDS011;66102;48.542;-2.970;2023-02-04T05:33:26;8.57;;;2.70;;
77136;SDS011;66102;48.542;-2.970;2023-02-04T05:35:52;7.70;;;2.65;;
77136;SDS011;66102;48.542;-2.970;2023-02-04T05:38:18;8.35;;;2.65;;
77136;SDS011;66102;48.542;-2.970;2023-02-04T05:40:44;8.82;;;3.03;;
77136;SDS011;66102;48.542;-2.970;2023-02-04T05:43:10;6.75;;;2.10;;
77136;SDS011;66102;48.542;-2.970;2023-02-04T05:45:36;8.25;;;2.40;;
77136;SDS011;66102;48.542;-2.970;2023-02-04T05:48:02;8.48;;;2.75;;
77136;SDS011;66102;48.542;-2.970;2023-02-04T05:50:28;6.88;;;2.80;;
77136;SDS011;66102;48.542;-2.970;2023-02-04T05:52:54;12.10;;;3.00;;
77136;SDS011;66102;48.542;-2.970;2023-02-04T05:55:20;7.97;;;2.42;;
77136;SDS011;66102;48.542;-2.970;2023-02-04T05:57:46;8.60;;;2.80;;
77136;SDS011;66102;48.542;-2.970;2023-02-04T06:00:12;5.35;;;2.47;;
77136;SDS011;66102;48.542;-2.970;2023-02-04T06:02:39;6.90;;;2.17;;
77136;SDS011;66102;48.542;-2.970;2023-02-04T06:05:05;9.68;;;2.97;;
77136;SDS011;66102;48.542;-2.970;2023-02-04T06:07:31;6.65;;;3.03;;
77136;SDS011;66102;48.542;-2.970;2023-02-04T06:09:57;9.15;;;3.40;;
77136;SDS011;66102;48.542;-2.970;2023-02-04T06:12:23;8.82;;;3.58;;
77136;SDS011;66102;48.542;-2.970;2023-02-04T06:14:49;11.10;;;3.10;;
77136;SDS011;66102;48.542;-2.970;2023-02-04T06:17:15;9.05;;;3.08;;
77136;SDS011;66102;48.542;-2.970;2023-02-04T06:19:41;9.95;;;3.13;;
77136;SDS011;66102;48.542;-2.970;2023-02-04T06:22:07;7.28;;;3.10;;
77136;SDS011;66102;48.542;-2.970;2023-02-04T06:24:33;7.35;;;3.42;;
77136;SDS011;66102;48.542;-2.970;2023-02-04T06:26:59;8.77;;;3.22;;
77136;SDS011;66102;48.542;-2.970;2023-02-04T06:29:25;11.15;;;3.05;;
77136;SDS011;66102;48.542;-2.970;2023-02-04T06:31:51;8.68;;;3.33;;
77136;SDS011;66102;48.542;-2.970;2023-02-04T06:34:17;9.40;;;4.20;;
77136;SDS011;66102;48.542;-2.970;2023-02-04T06:36:43;7.80;;;4.47;;
77136;SDS011;66102;48.542;-2.970;2023-02-04T06:39:09;11.90;;;4.75;;
77136;SDS011;66102;48.542;-2.970;2023-02-04T06:41:35;9.55;;;4.90;;
77136;SDS011;66102;48.542;-2.970;2023-02-04T06:44:01;7.55;;;3.53;;
77136;SDS011;66102;48.542;-2.970;2023-02-04T06:46:27;10.38;;;4.22;;
77136;SDS011;66102;48.542;-2.970;2023-02-04T06:48:53;9.27;;;3.85;;
77136;SDS011;66102;48.542;-2.970;2023-02-04T06:51:20;10.50;;;4.55;;
77136;SDS011;66102;48.542;-2.970;2023-02-04T06:53:46;7.97;;;3.20;;
77136;SDS011;66102;48.542;-2.970;2023-02-04T06:56:12;5.95;;;2.80;;
77136;SDS011;66102;48.542;-2.970;2023-02-04T06:58:38;7.00;;;2.80;;
77136;SDS011;66102;48.542;-2.970;2023-02-04T07:01:04;5.75;;;2.33;;
77136;SDS011;66102;48.542;-2.970;2023-02-04T07:03:30;10.20;;;2.92;;
77136;SDS011;66102;48.542;-2.970;2023-02-04T07:05:56;11.63;;;4.32;;
77136;SDS011;66102;48.542;-2.970;2023-02-04T07:08:22;7.70;;;4.05;;
77136;SDS011;66102;48.542;-2.970;2023-02-04T07:10:49;9.68;;;4.38;;
77136;SDS011;66102;48.542;-2.970;2023-02-04T07:13:15;9.15;;;4.55;;
77136;SDS011;66102;48.542;-2.970;2023-02-04T07:15:41;8.93;;;3.63;;
77136;SDS011;66102;48.542;-2.970;2023-02-04T07:18:07;8.45;;;2.70;;
77136;SDS011;66102;48.542;-2.970;2023-02-04T07:20:33;8.98;;;3.50;;
77136;SDS011;66102;48.542;-2.970;2023-02-04T07:22:59;8.90;;;3.85;;
77136;SDS011;66102;48.542;-2.970;2023-02-04T07:25:25;7.03;;;3.05;;
77136;SDS011;66102;48.542;-2.970;2023-02-04T07:27:51;7.47;;;3.00;;
77136;SDS011;66102;48.542;-2.970;2023-02-04T07:30:18;7.60;;;3.20;;
77136;SDS011;66102;48.542;-2.970;2023-02-04T07:32:44;7.90;;;3.28;;
77136;SDS011;66102;48.542;-2.970;2023-02-04T07:35:10;6.38;;;2.92;;
77136;SDS011;66102;48.542;-2.970;2023-02-04T07:37:37;10.35;;;3.80;;
77136;SDS011;66102;48.542;-2.970;2023-02-04T07:40:03;9.02;;;3.80;;
77136;SDS011;66102;48.542;-2.970;2023-02-04T07:42:29;6.85;;;3.20;;
77136;SDS011;66102;48.542;-2.970;2023-02-04T07:44:55;8.90;;;3.42;;
77136;SDS011;66102;48.542;-2.970;2023-02-04T07:47:21;8.32;;;4.35;;
77136;SDS011;66102;48.542;-2.970;2023-02-04T07:49:47;12.52;;;4.07;;
77136;SDS011;66102;48.542;-2.970;2023-02-04T07:52:14;13.13;;;4.85;;
77136;SDS011;66102;48.542;-2.970;2023-02-04T07:54:41;12.55;;;5.22;;
77136;SDS011;66102;48.542;-2.970;2023-02-04T07:57:07;9.90;;;5.00;;
77136;SDS011;66102;48.542;-2.970;2023-02-04T07:59:33;11.63;;;4.80;;
77136;SDS011;66102;48.542;-2.970;2023-02-04T08:01:59;13.80;;;6.22;;
77136;SDS011;66102;48.542;-2.970;2023-02-04T08:04:25;10.57;;;4.63;;
77136;SDS011;66102;48.542;-2.970;2023-02-04T08:06:52;10.93;;;5.47;;
77136;SDS011;66102;48.542;-2.970;2023-02-04T08:09:18;10.30;;;4.65;;
77136;SDS011;66102;48.542;-2.970;2023-02-04T08:11:44;8.93;;;4.25;;
77136;SDS011;66102;48.542;-2.970;2023-02-04T08:14:10;9.50;;;5.15;;
77136;SDS011;66102;48.542;-2.970;2023-02-04T08:16:36;13.02;;;6.05;;
77136;SDS011;66102;48.542;-2.970;2023-02-04T08:19:02;8.40;;;4.45;;
77136;SDS011;66102;48.542;-2.970;2023-02-04T08:21:28;10.07;;;4.65;;
77136;SDS011;66102;48.542;-2.970;2023-02-04T08:23:54;8.25;;;3.85;;
77136;SDS011;66102;48.542;-2.970;2023-02-04T08:26:20;6.55;;;3.53;;
77136;SDS011;66102;48.542;-2.970;2023-02-04T08:28:46;8.13;;;3.70;;
77136;SDS011;66102;48.542;-2.970;2023-02-04T08:31:12;13.15;;;4.68;;
77136;SDS011;66102;48.542;-2.970;2023-02-04T08:33:38;15.65;;;4.57;;
77136;SDS011;66102;48.542;-2.970;2023-02-04T08:36:05;12.32;;;5.43;;
77136;SDS011;66102;48.542;-2.970;2023-02-04T08:38:31;12.18;;;5.35;;
77136;SDS011;66102;48.542;-2.970;2023-02-04T08:40:57;15.55;;;5.88;;
77136;SDS011;66102;48.542;-2.970;2023-02-04T08:43:26;13.52;;;4.80;;
77136;SDS011;66102;48.542;-2.970;2023-02-04T08:45:52;11.52;;;4.07;;
77136;SDS011;66102;48.542;-2.970;2023-02-04T08:48:18;11.85;;;4.25;;
77136;SDS011;66102;48.542;-2.970;2023-02-04T08:50:44;10.90;;;4.30;;
77136;SDS011;66102;48.542;-2.970;2023-02-04T08:53:10;12.25;;;4.50;;
77136;SDS011;66102;48.542;-2.970;2023-02-04T08:55:36;11.43;;;5.55;;
77136;SDS011;66102;48.542;-2.970;2023-02-04T08:58:02;14.05;;;6.90;;
77136;SDS011;66102;48.542;-2.970;2023-02-04T09:00:28;9.20;;;5.25;;
77136;SDS011;66102;48.542;-2.970;2023-02-04T09:02:55;11.13;;;5.38;;
77136;SDS011;66102;48.542;-2.970;2023-02-04T09:05:21;12.20;;;5.50;;
77136;SDS011;66102;48.542;-2.970;2023-02-04T09:07:47;11.23;;;5.35;;
77136;SDS011;66102;48.542;-2.970;2023-02-04T09:10:13;11.05;;;5.47;;
77136;SDS011;66102;48.542;-2.970;2023-02-04T09:12:39;11.52;;;5.78;;
77136;SDS011;66102;48.542;-2.970;2023-02-04T09:15:06;13.73;;;6.05;;
77136;SDS011;66102;48.542;-2.970;2023-02-04T09:17:32;13.30;;;6.68;;
77136;SDS011;66102;48.542;-2.970;2023-02-04T09:19:59;12.77;;;7.03;;
77136;SDS011;66102;48.542;-2.970;2023-02-04T09:22:25;12.63;;;6.03;;
77136;SDS011;66102;48.542;-2.970;2023-02-04T09:24:51;12.27;;;4.78;;
77136;SDS011;66102;48.542;-2.970;2023-02-04T09:27:17;10.85;;;4.30;;
77136;SDS011;66102;48.542;-2.970;2023-02-04T09:29:43;8.95;;;4.28;;
77136;SDS011;66102;48.542;-2.970;2023-02-04T09:32:09;11.75;;;5.63;;
77136;SDS011;66102;48.542;-2.970;2023-02-04T09:34:36;10.63;;;5.43;;
77136;SDS011;66102;48.542;-2.970;2023-02-04T09:37:02;11.52;;;4.65;;
77136;SDS011;66102;48.542;-2.970;2023-02-04T09:39:28;10.05;;;4.78;;
77136;SDS011;66102;48.542;-2.970;2023-02-04T09:41:54;9.45;;;4.55;;
77136;SDS011;66102;48.542;-2.970;2023-02-04T09:44:21;9.13;;;4.10;;
77136;SDS011;66102;48.542;-2.970;2023-02-04T09:46:50;9.02;;;4.32;;
77136;SDS011;66102;48.542;-2.970;2023-02-04T09:49:16;7.50;;;3.05;;
77136;SDS011;66102;48.542;-2.970;2023-02-04T09:51:43;9.23;;;3.30;;
77136;SDS011;66102;48.542;-2.970;2023-02-04T09:54:13;10.27;;;4.55;;
77136;SDS011;66102;48.542;-2.970;2023-02-04T09:56:40;9.25;;;3.58;;
77136;SDS011;66102;48.542;-2.970;2023-02-04T09:59:19;7.07;;;3.17;;
77136;SDS011;66102;48.542;-2.970;2023-02-04T10:02:46;8.13;;;3.67;;
77136;SDS011;66102;48.542;-2.970;2023-02-04T10:07:09;9.10;;;3.72;;
77136;SDS011;66102;48.542;-2.970;2023-02-04T10:09:37;8.98;;;3.50;;
77136;SDS011;66102;48.542;-2.970;2023-02-04T10:12:05;9.10;;;2.60;;
77136;SDS011;66102;48.542;-2.970;2023-02-04T10:14:31;6.82;;;3.00;;
77136;SDS011;66102;48.542;-2.970;2023-02-04T10:16:57;8.57;;;3.53;;
77136;SDS011;66102;48.542;-2.970;2023-02-04T10:19:24;9.35;;;3.30;;
77136;SDS011;66102;48.542;-2.970;2023-02-04T10:21:51;9.35;;;3.03;;
77136;SDS011;66102;48.542;-2.970;2023-02-04T10:24:22;7.55;;;3.00;;
77136;SDS011;66102;48.542;-2.970;2023-02-04T10:26:52;7.40;;;3.08;;
77136;SDS011;66102;48.542;-2.970;2023-02-04T10:29:19;6.65;;;2.75;;
77136;SDS011;66102;48.542;-2.970;2023-02-04T10:31:47;8.93;;;3.03;;
77136;SDS011;66102;48.542;-2.970;2023-02-04T10:34:16;9.43;;;3.00;;
77136;SDS011;66102;48.542;-2.970;2023-02-04T10:36:44;8.73;;;2.88;;
77136;SDS011;66102;48.542;-2.970;2023-02-04T10:39:14;11.13;;;3.70;;
77136;SDS011;66102;48.542;-2.970;2023-02-04T10:41:45;9.77;;;4.43;;
77136;SDS011;66102;48.542;-2.970;2023-02-04T10:44:12;9.52;;;3.38;;
77136;SDS011;66102;48.542;-2.970;2023-02-04T10:46:38;7.75;;;3.00;;
77136;SDS011;66102;48.542;-2.970;2023-02-04T10:49:04;5.35;;;2.42;;
77136;SDS011;66102;48.542;-2.970;2023-02-04T10:51:31;6.43;;;2.47;;
77136;SDS011;66102;48.542;-2.970;2023-02-04T10:53:57;9.30;;;3.50;;
77136;SDS011;66102;48.542;-2.970;2023-02-04T10:56:41;6.53;;;2.72;;
77136;SDS011;66102;48.542;-2.970;2023-02-04T10:59:15;7.05;;;2.90;;
77136;SDS011;66102;48.542;-2.970;2023-02-04T11:01:44;9.05;;;2.92;;
77136;SDS011;66102;48.542;-2.970;2023-02-04T11:04:10;7.72;;;3.30;;
77136;SDS011;66102;48.542;-2.970;2023-02-04T11:06:36;6.63;;;2.88;;
77136;SDS011;66102;48.542;-2.970;2023-02-04T11:09:02;7.63;;;3.35;;
77136;SDS011;66102;48.542;-2.970;2023-02-04T11:11:28;8.60;;;2.45;;
77136;SDS011;66102;48.542;-2.970;2023-02-04T11:16:24;9.60;;;2.95;;
77136;SDS011;66102;48.542;-2.970;2023-02-04T11:18:55;9.30;;;3.20;;
77136;SDS011;66102;48.542;-2.970;2023-02-04T11:23:48;11.07;;;3.50;;
77136;SDS011;66102;48.542;-2.970;2023-02-04T11:26:15;5.47;;;2.75;;
77136;SDS011;66102;48.542;-2.970;2023-02-04T11:28:50;7.35;;;3.13;;
77136;SDS011;66102;48.542;-2.970;2023-02-04T11:33:46;8.80;;;3.63;;
77136;SDS011;66102;48.542;-2.970;2023-02-04T11:36:13;13.90;;;3.67;;
77136;SDS011;66102;48.542;-2.970;2023-02-04T11:38:44;7.05;;;3.08;;
77136;SDS011;66102;48.542;-2.970;2023-02-04T11:41:29;6.90;;;3.00;;
77136;SDS011;66102;48.542;-2.970;2023-02-04T11:43:56;8.55;;;3.10;;
77136;SDS011;66102;48.542;-2.970;2023-02-04T11:46:22;8.43;;;3.72;;
77136;SDS011;66102;48.542;-2.970;2023-02-04T11:48:57;9.23;;;3.17;;
77136;SDS011;66102;48.542;-2.970;2023-02-04T11:51:33;7.60;;;3.35;;
77136;SDS011;66102;48.542;-2.970;2023-02-04T11:53:59;6.50;;;3.30;;
77136;SDS011;66102;48.542;-2.970;2023-02-04T11:56:26;6.85;;;3.25;;
77136;SDS011;66102;48.542;-2.970;2023-02-04T11:58:54;10.02;;;4.50;;
77136;SDS011;66102;48.542;-2.970;2023-02-04T12:01:29;11.30;;;3.72;;
77136;SDS011;66102;48.542;-2.970;2023-02-04T12:03:56;9.80;;;3.63;;
77136;SDS011;66102;48.542;-2.970;2023-02-04T12:06:27;9.45;;;4.40;;
77136;SDS011;66102;48.542;-2.970;2023-02-04T12:09:03;6.60;;;2.97;;
77136;SDS011;66102;48.542;-2.970;2023-02-04T12:11:29;8.05;;;3.28;;
77136;SDS011;66102;48.542;-2.970;2023-02-04T12:13:56;5.90;;;2.83;;
77136;SDS011;66102;48.542;-2.970;2023-02-04T12:16:22;11.10;;;3.40;;
77136;SDS011;66102;48.542;-2.970;2023-02-04T12:18:49;10.30;;;3.50;;
77136;SDS011;66102;48.542;-2.970;2023-02-04T12:21:16;9.60;;;3.80;;
77136;SDS011;66102;48.542;-2.970;2023-02-04T12:23:45;7.80;;;3.90;;
77136;SDS011;66102;48.542;-2.970;2023-02-04T12:26:11;10.82;;;4.32;;
77136;SDS011;66102;48.542;-2.970;2023-02-04T12:28:37;8.85;;;4.07;;
77136;SDS011;66102;48.542;-2.970;2023-02-04T12:31:03;9.52;;;3.35;;
77136;SDS011;66102;48.542;-2.970;2023-02-04T12:33:29;5.78;;;2.55;;
77136;SDS011;66102;48.542;-2.970;2023-02-04T12:35:55;9.02;;;3.22;;
77136;SDS011;66102;48.542;-2.970;2023-02-04T12:38:21;6.88;;;3.00;;
77136;SDS011;66102;48.542;-2.970;2023-02-04T12:40:47;7.47;;;3.10;;
77136;SDS011;66102;48.542;-2.970;2023-02-04T12:43:13;8.45;;;2.83;;
77136;SDS011;66102;48.542;-2.970;2023-02-04T12:45:39;6.50;;;2.63;;
77136;SDS011;66102;48.542;-2.970;2023-02-04T12:48:09;9.02;;;2.80;;
77136;SDS011;66102;48.542;-2.970;2023-02-04T12:50:35;6.68;;;3.17;;
77136;SDS011;66102;48.542;-2.970;2023-02-04T12:53:02;10.75;;;4.13;;
77136;SDS011;66102;48.542;-2.970;2023-02-04T12:55:28;8.75;;;3.22;;
77136;SDS011;66102;48.542;-2.970;2023-02-04T12:57:54;6.28;;;2.58;;
77136;SDS011;66102;48.542;-2.970;2023-02-04T13:00:20;13.60;;;5.45;;
77136;SDS011;66102;48.542;-2.970;2023-02-04T13:02:47;7.82;;;3.42;;
77136;SDS011;66102;48.542;-2.970;2023-02-04T13:05:13;7.53;;;3.22;;
77136;SDS011;66102;48.542;-2.970;2023-02-04T13:07:39;7.85;;;3.08;;
77136;SDS011;66102;48.542;-2.970;2023-02-04T13:10:06;8.00;;;3.30;;
77136;SDS011;66102;48.542;-2.970;2023-02-04T13:12:46;7.75;;;3.20;;
77136;SDS011;66102;48.542;-2.970;2023-02-04T13:15:12;8.63;;;3.17;;
77136;SDS011;66102;48.542;-2.970;2023-02-04T13:17:38;7.63;;;3.50;;
77136;SDS011;66102;48.542;-2.970;2023-02-04T13:20:04;8.32;;;3.47;;
77136;SDS011;66102;48.542;-2.970;2023-02-04T13:22:31;8.23;;;3.67;;
77136;SDS011;66102;48.542;-2.970;2023-02-04T13:24:57;8.23;;;4.10;;
77136;SDS011;66102;48.542;-2.970;2023-02-04T13:27:23;7.50;;;3.20;;
77136;SDS011;66102;48.542;-2.970;2023-02-04T13:29:49;11.77;;;3.40;;
77136;SDS011;66102;48.542;-2.970;2023-02-04T13:32:15;6.75;;;2.60;;
77136;SDS011;66102;48.542;-2.970;2023-02-04T13:34:41;9.68;;;3.70;;
77136;SDS011;66102;48.542;-2.970;2023-02-04T13:37:07;7.85;;;3.22;;
77136;SDS011;66102;48.542;-2.970;2023-02-04T13:39:33;11.85;;;3.30;;
77136;SDS011;66102;48.542;-2.970;2023-02-04T13:41:59;8.23;;;3.33;;
77136;SDS011;66102;48.542;-2.970;2023-02-04T13:44:25;6.68;;;3.17;;
77136;SDS011;66102;48.542;-2.970;2023-02-04T13:46:51;6.93;;;2.70;;
77136;SDS011;66102;48.542;-2.970;2023-02-04T13:49:17;8.65;;;2.65;;
77136;SDS011;66102;48.542;-2.970;2023-02-04T13:51:45;5.70;;;2.75;;
77136;SDS011;66102;48.542;-2.970;2023-02-04T13:54:11;10.27;;;3.25;;
77136;SDS011;66102;48.542;-2.970;2023-02-04T13:56:37;7.10;;;3.00;;
77136;SDS011;66102;48.542;-2.970;2023-02-04T13:59:05;8.40;;;2.72;;
77136;SDS011;66102;48.542;-2.970;2023-02-04T14:01:31;6.00;;;2.50;;
77136;SDS011;66102;48.542;-2.970;2023-02-04T14:03:57;7.20;;;2.75;;
77136;SDS011;66102;48.542;-2.970;2023-02-04T14:06:23;7.38;;;3.00;;
77136;SDS011;66102;48.542;-2.970;2023-02-04T14:08:57;6.95;;;2.80;;
77136;SDS011;66102;48.542;-2.970;2023-02-04T14:11:23;9.32;;;2.90;;
77136;SDS011;66102;48.542;-2.970;2023-02-04T14:13:49;6.40;;;2.85;;
77136;SDS011;66102;48.542;-2.970;2023-02-04T14:16:15;7.45;;;2.95;;
77136;SDS011;66102;48.542;-2.970;2023-02-04T14:18:41;8.73;;;3.45;;
77136;SDS011;66102;48.542;-2.970;2023-02-04T14:21:07;8.55;;;3.55;;
77136;SDS011;66102;48.542;-2.970;2023-02-04T14:23:33;7.47;;;3.05;;
77136;SDS011;66102;48.542;-2.970;2023-02-04T14:25:59;6.65;;;2.92;;
77136;SDS011;66102;48.542;-2.970;2023-02-04T14:28:25;9.50;;;3.30;;
77136;SDS011;66102;48.542;-2.970;2023-02-04T14:30:51;7.80;;;2.83;;
77136;SDS011;66102;48.542;-2.970;2023-02-04T14:33:18;8.50;;;2.42;;
77136;SDS011;66102;48.542;-2.970;2023-02-04T14:35:45;5.95;;;2.20;;
77136;SDS011;66102;48.542;-2.970;2023-02-04T14:38:11;7.43;;;2.28;;
77136;SDS011;66102;48.542;-2.970;2023-02-04T14:40:40;7.93;;;2.50;;